Mahwah, NJ (07495)

4:55 AM EDT on April 21, 2015 (GMT -0400)
Kensington Wood | | Change Station
CLOSE
Current Station
Personal Weather Station
Location: Ringwood, NJ
Elevation: 672 ft
Nearby Weather Stations

Elev 672 ft 41.07 °N, 74.25 °W | Updated 3 seconds ago

Rain
Rain
52.3 °F
Feels Like 52.3 °F
N
1.1
Wind Variable Wind from ENE
Gusts 1.1 mph

Today
High -- | Low -- °F
--% Chance of Precip.
Yesterday
High -- | Low -- °F
Precip. -- in
6:08 AM 7:42 PM
Waxing Crescent, 9% visible
Pressure 29.57 in
Visibility 9.0 miles
Clouds Few 4100 ft
Overcast 8500 ft
Dew Point 51 °F
Humidity 96%
Rainfall 0.13 in
Snow Depth Not available.
UV 0 out of 12
Pollen .40 out of 12
Air Quality Not available.
Flu Activity Regional
METAR KCDW 210753Z AUTO 09003KT 9SM -RA FEW041 OVC085 13/12 A2956 RMK AO2 SLP013 P0008 T01280117 TSNO

More Conditions Fewer Conditions

Pressure 29.57 in
Visibility 9.0 miles
Clouds Few 4100 ft
Overcast 8500 ft
Dew Point 51 °F
Humidity 96%
Rainfall 0.13 in
Snow Depth Not available.
UV 0 out of 12
Pollen .40 out of 12
Air Quality Not available.
Flu Activity Regional
METAR KCDW 210753Z AUTO 09003KT 9SM -RA FEW041 OVC085 13/12 A2956 RMK AO2 SLP013 P0008 T01280117 TSNO

More Conditions Fewer Conditions

10-Day Weather Forecast

Almanac

Astronomy

Apr. 21, 2015 Rise Set
Actual Time
Civil Twilight
Nautical Twilight
Astronomical Twilight
Moon
Length of Visible Light
Length of Day
Tomorrow will be .
, % of the Moon is Illuminated

Today's Extremes

State Highs State Lows

Community

WunderPhotos

Upload Photos

1,815,329 photos uploaded!

WunderBlogs® & News

Nearby

Air Quality

  Air Quality AQ Index Pollutant
Not available.

Snow Depth

Station Depth Elevation

Earthquake Activity

City Distance Mag. Time & Date
Minimum magnitude displayed is 2.5.

Coastal Water Temperatures

Place Temperature

Stations

Nearby Weather Stations

Station Location Temp. Windchill Dew Point Humidity Wind Precip. Elev Updated Type